createdAt,value
2023-05-22T00:01:26.139Z,100.00
2023-05-22T00:03:58.666Z,100.00
2023-05-22T00:06:33.402Z,100.00
2023-05-22T00:09:05.910Z,100.00
2023-05-22T00:11:38.838Z,100.00
2023-05-22T00:14:12.760Z,100.00
2023-05-22T00:16:47.577Z,100.00
2023-05-22T00:19:22.328Z,100.00
2023-05-22T00:21:54.749Z,100.00
2023-05-22T00:24:27.098Z,100.00
2023-05-22T00:26:59.415Z,100.00
2023-05-22T00:29:32.666Z,100.00
2023-05-22T00:32:06.682Z,100.00
2023-05-22T00:34:39.235Z,100.00
2023-05-22T00:37:11.672Z,100.00
2023-05-22T00:39:44.168Z,100.00
2023-05-22T00:42:16.752Z,100.00
2023-05-22T00:44:49.186Z,100.00
2023-05-22T00:47:22.998Z,100.00
2023-05-22T00:49:55.749Z,100.00
2023-05-22T00:52:28.064Z,100.00
2023-05-22T00:55:00.987Z,100.00
2023-05-22T00:57:33.520Z,100.00
2023-05-22T01:00:09.956Z,100.00
2023-05-22T01:02:43.418Z,100.00
2023-05-22T01:05:17.376Z,100.00
2023-05-22T01:07:49.865Z,100.00
2023-05-22T01:10:22.398Z,100.00
2023-05-22T01:13:03.948Z,100.00
2023-05-22T01:15:43.893Z,100.00
2023-05-22T01:18:29.545Z,100.00
2023-05-22T01:21:09.558Z,100.00
2023-05-22T01:24:15.420Z,100.00
2023-05-22T01:27:10.417Z,100.00
2023-05-22T01:29:48.010Z,100.00
2023-05-22T01:32:25.144Z,100.00
2023-05-22T01:35:03.075Z,100.00
2023-05-22T01:37:36.363Z,100.00
2023-05-22T01:40:11.553Z,100.00
2023-05-22T01:42:45.172Z,100.00
2023-05-22T01:45:17.566Z,100.00
2023-05-22T01:47:51.492Z,100.00
2023-05-22T01:50:24.216Z,100.00
2023-05-22T01:53:06.574Z,100.00
2023-05-22T01:55:44.894Z,100.00
2023-05-22T01:58:25.300Z,100.00
2023-05-22T02:01:01.040Z,100.00
2023-05-22T02:03:56.664Z,100.00
2023-05-22T02:06:31.909Z,100.00
2023-05-22T02:09:06.771Z,100.00
2023-05-22T02:11:41.234Z,100.00
2023-05-22T02:14:13.690Z,100.00
2023-05-22T02:16:46.988Z,100.00
2023-05-22T02:19:20.198Z,100.00
2023-05-22T02:21:54.741Z,100.00
2023-05-22T02:24:27.420Z,100.00
2023-05-22T02:27:00.916Z,100.00
2023-05-22T02:29:33.388Z,100.00
2023-05-22T02:32:06.397Z,100.00
2023-05-22T02:34:39.604Z,100.00
2023-05-22T02:37:12.569Z,100.00
2023-05-22T02:39:48.069Z,100.00
2023-05-22T02:42:20.495Z,100.00
2023-05-22T02:44:53.021Z,100.00
2023-05-22T02:47:25.478Z,100.00
2023-05-22T02:49:58.619Z,100.00
2023-05-22T02:52:30.983Z,100.00
2023-05-22T02:55:03.650Z,100.00
2023-05-22T02:57:36.321Z,100.00
2023-05-22T03:00:10.843Z,100.00
2023-05-22T03:02:43.440Z,100.00
2023-05-22T03:05:17.106Z,100.00
2023-05-22T03:07:49.497Z,100.00
2023-05-22T03:10:23.041Z,100.00
2023-05-22T03:12:55.423Z,100.00
2023-05-22T03:15:27.913Z,100.00
2023-05-22T03:18:04.863Z,100.00
2023-05-22T03:20:38.372Z,100.00
2023-05-22T03:23:11.576Z,100.00
2023-05-22T03:25:43.953Z,100.00
2023-05-22T03:28:16.675Z,100.00
2023-05-22T03:30:49.240Z,100.00
2023-05-22T03:33:30.384Z,100.00
2023-05-22T03:36:03.986Z,100.00
2023-05-22T03:38:36.325Z,100.00
2023-05-22T03:41:08.650Z,100.00
2023-05-22T03:43:48.875Z,100.00
2023-05-22T03:46:21.434Z,100.00
2023-05-22T03:48:54.077Z,100.00
2023-05-22T03:51:27.261Z,100.00
2023-05-22T03:53:59.605Z,100.00
2023-05-22T03:56:32.025Z,100.00
2023-05-22T03:59:04.423Z,100.00
2023-05-22T04:01:38.636Z,100.00
2023-05-22T04:04:11.474Z,100.00
2023-05-22T04:06:44.558Z,100.00
2023-05-22T04:09:19.809Z,100.00
2023-05-22T04:11:52.605Z,100.00
2023-05-22T04:14:25.482Z,100.00
2023-05-22T04:16:57.917Z,100.00
2023-05-22T04:19:30.442Z,100.00
2023-05-22T04:22:03.922Z,100.00
2023-05-22T04:24:38.993Z,100.00
2023-05-22T04:27:12.471Z,100.00
2023-05-22T04:29:46.280Z,100.00
2023-05-22T04:32:21.114Z,100.00
2023-05-22T04:34:53.447Z,100.00
2023-05-22T04:37:28.068Z,100.00
2023-05-22T04:40:06.158Z,100.00
2023-05-22T04:42:38.712Z,100.00
2023-05-22T04:45:13.111Z,100.00
2023-05-22T04:47:45.472Z,100.00
2023-05-22T04:50:18.134Z,100.00
2023-05-22T04:52:51.112Z,100.00
2023-05-22T04:55:23.518Z,100.00
2023-05-22T04:57:56.049Z,100.00
2023-05-22T05:00:29.415Z,100.00
2023-05-22T05:03:03.675Z,100.00
2023-05-22T05:05:36.203Z,100.00
2023-05-22T05:08:09.362Z,100.00
2023-05-22T05:10:41.853Z,100.00
2023-05-22T05:13:14.281Z,100.00
2023-05-22T05:15:46.716Z,100.00
2023-05-22T05:18:19.493Z,100.00
2023-05-22T05:20:51.872Z,100.00
2023-05-22T05:23:24.885Z,100.00
2023-05-22T05:25:57.269Z,100.00
2023-05-22T05:28:29.646Z,100.00
2023-05-22T05:31:02.353Z,100.00
2023-05-22T05:33:57.364Z,100.00
2023-05-22T05:36:37.313Z,94.01
2023-05-22T05:39:10.521Z,94.49
2023-05-22T05:41:43.749Z,95.13
2023-05-22T05:44:16.545Z,90.98
2023-05-22T05:46:49.259Z,90.47
2023-05-22T05:49:23.758Z,90.59
2023-05-22T05:51:56.140Z,89.97
2023-05-22T05:54:30.093Z,88.26
2023-05-22T05:57:07.121Z,88.92
2023-05-22T05:59:40.462Z,87.34
2023-05-22T06:02:38.458Z,85.42
2023-05-22T06:05:12.855Z,83.16
2023-05-22T06:07:47.585Z,84.07
2023-05-22T06:10:21.819Z,82.32
2023-05-22T06:13:08.000Z,81.96
2023-05-22T06:15:40.567Z,83.45
2023-05-22T06:18:13.125Z,82.49
2023-05-22T06:20:45.484Z,82.96
2023-05-22T06:23:17.810Z,79.81
2023-05-22T06:25:50.972Z,80.85
2023-05-22T06:28:23.410Z,79.82
2023-05-22T06:30:56.502Z,78.67
2023-05-22T06:33:29.364Z,81.00
2023-05-22T06:36:03.045Z,78.48
2023-05-22T06:38:37.238Z,78.82
2023-05-22T06:41:11.521Z,78.98
2023-05-22T06:43:44.494Z,80.97
2023-05-22T06:46:18.060Z,80.12
2023-05-22T06:48:58.227Z,80.26
2023-05-22T06:51:33.507Z,83.10
2023-05-22T06:54:13.120Z,80.23
2023-05-22T06:56:49.257Z,82.33
2023-05-22T06:59:23.297Z,79.68
2023-05-22T07:01:58.497Z,82.09
2023-05-22T07:04:39.864Z,81.10
2023-05-22T07:07:15.250Z,76.79
2023-05-22T07:09:47.931Z,78.00
2023-05-22T07:12:25.266Z,72.15
2023-05-22T07:14:59.475Z,77.15
2023-05-22T07:17:32.268Z,75.41
2023-05-22T07:20:06.253Z,75.86
2023-05-22T07:22:41.076Z,73.49
2023-05-22T07:25:13.481Z,72.38
2023-05-22T07:27:47.008Z,72.28
2023-05-22T07:30:19.545Z,73.00
2023-05-22T07:32:53.463Z,70.73
2023-05-22T07:35:26.190Z,69.64
2023-05-22T07:37:58.699Z,68.28
2023-05-22T07:40:31.243Z,69.22
2023-05-22T07:43:04.494Z,69.68
2023-05-22T07:45:39.016Z,70.38
2023-05-22T07:48:14.538Z,70.03
2023-05-22T07:50:47.124Z,70.84
2023-05-22T07:53:21.051Z,71.24
2023-05-22T07:55:56.507Z,72.62
2023-05-22T07:58:30.087Z,71.69
2023-05-22T08:01:04.248Z,71.77
2023-05-22T08:03:37.183Z,72.22
2023-05-22T08:06:22.488Z,72.40
2023-05-22T08:08:54.906Z,73.43
2023-05-22T08:11:27.546Z,70.70
2023-05-22T08:14:00.937Z,71.88
2023-05-22T08:16:33.504Z,68.97
2023-05-22T08:19:06.339Z,68.17
2023-05-22T08:21:39.621Z,70.34
2023-05-22T08:24:11.977Z,70.33
2023-05-22T08:26:44.324Z,67.21
2023-05-22T08:29:18.063Z,69.22
2023-05-22T08:31:51.626Z,63.77
2023-05-22T08:34:24.075Z,65.61
2023-05-22T08:36:56.596Z,62.61
2023-05-22T08:39:28.945Z,62.72
2023-05-22T08:42:02.704Z,63.71
2023-05-22T08:44:35.907Z,61.93
2023-05-22T08:47:10.560Z,60.86
2023-05-22T08:49:45.337Z,57.32
2023-05-22T08:52:21.693Z,59.45
2023-05-22T08:54:55.173Z,58.25
2023-05-22T08:57:27.868Z,56.76
2023-05-22T09:00:01.362Z,55.38
2023-05-22T09:02:35.301Z,58.18
2023-05-22T09:05:09.110Z,55.36
2023-05-22T09:07:41.892Z,53.52
2023-05-22T09:10:14.333Z,52.81
2023-05-22T09:13:05.009Z,52.08
2023-05-22T09:15:38.140Z,52.31
2023-05-22T09:18:10.672Z,49.62
2023-05-22T09:20:43.433Z,50.88
2023-05-22T09:23:17.672Z,52.57
2023-05-22T09:25:53.652Z,48.11
2023-05-22T09:28:26.761Z,50.95
2023-05-22T09:31:02.503Z,45.50
2023-05-22T09:33:36.866Z,43.79
2023-05-22T09:36:09.799Z,46.04
2023-05-22T09:38:42.440Z,43.62
2023-05-22T09:41:21.514Z,44.72
2023-05-22T09:43:53.997Z,41.74
2023-05-22T09:46:27.184Z,41.52
2023-05-22T09:49:01.495Z,43.03
2023-05-22T09:51:35.666Z,43.46
2023-05-22T09:54:09.094Z,43.66
2023-05-22T09:56:43.979Z,44.44
2023-05-22T09:59:21.623Z,41.89
2023-05-22T10:01:55.459Z,41.66
2023-05-22T10:04:32.708Z,40.00
2023-05-22T10:07:06.074Z,40.97
2023-05-22T10:09:40.214Z,41.89
2023-05-22T10:12:15.760Z,42.28
2023-05-22T10:14:48.657Z,43.92
2023-05-22T10:17:22.879Z,41.82
2023-05-22T10:19:57.387Z,44.19
2023-05-22T10:22:32.710Z,42.85
2023-05-22T10:25:08.567Z,45.03
2023-05-22T10:27:42.408Z,43.09
2023-05-22T10:30:24.077Z,47.54
2023-05-22T10:33:21.453Z,49.42
2023-05-22T10:36:01.434Z,49.65
2023-05-22T10:39:03.657Z,50.06
2023-05-22T10:41:36.290Z,52.12
2023-05-22T10:44:08.735Z,52.07
2023-05-22T10:46:48.597Z,53.02
2023-05-22T10:49:23.171Z,53.41
2023-05-22T10:51:56.582Z,52.27
2023-05-22T10:54:40.563Z,54.61
2023-05-22T10:57:17.359Z,58.46
2023-05-22T10:59:49.863Z,65.12
2023-05-22T11:02:28.576Z,71.00
2023-05-22T11:05:35.750Z,79.06
2023-05-22T11:08:12.465Z,81.60
2023-05-22T11:10:55.305Z,82.74
2023-05-22T11:13:29.264Z,84.51
2023-05-22T11:16:05.594Z,85.30
2023-05-22T11:18:38.121Z,86.96
2023-05-22T11:21:11.547Z,91.93
2023-05-22T11:23:45.898Z,91.55
2023-05-22T11:26:25.234Z,96.65
2023-05-22T11:28:59.833Z,99.28
2023-05-22T11:31:32.677Z,98.47
2023-05-22T11:34:05.418Z,98.45
2023-05-22T11:36:38.598Z,93.15
2023-05-22T11:39:14.719Z,90.78
2023-05-22T11:41:47.127Z,92.03
2023-05-22T11:44:19.511Z,92.63
2023-05-22T11:46:52.247Z,88.13
2023-05-22T11:49:25.193Z,93.08
2023-05-22T11:51:58.379Z,91.92
2023-05-22T11:54:32.323Z,90.98
2023-05-22T11:57:06.180Z,85.91
2023-05-22T11:59:38.646Z,88.47
2023-05-22T12:02:11.154Z,89.10
2023-05-22T12:04:43.584Z,92.33
2023-05-22T12:07:16.789Z,98.14
2023-05-22T12:09:49.556Z,96.29
2023-05-22T12:12:22.809Z,97.80
2023-05-22T12:14:57.345Z,96.90
2023-05-22T12:17:29.770Z,99.36
2023-05-22T12:20:04.069Z,96.18
2023-05-22T12:22:42.691Z,98.39
2023-05-22T12:25:16.901Z,93.93
2023-05-22T12:27:51.269Z,94.25
2023-05-22T12:30:23.642Z,94.02
2023-05-22T12:32:56.430Z,95.56
2023-05-22T12:35:28.895Z,99.04
2023-05-22T12:38:02.087Z,98.85
2023-05-22T12:40:34.607Z,100.00
2023-05-22T12:43:07.514Z,100.00
2023-05-22T12:45:41.998Z,100.00
2023-05-22T12:48:14.788Z,100.00
2023-05-22T12:50:47.307Z,100.00
2023-05-22T12:53:20.511Z,100.00
2023-05-22T12:55:52.871Z,100.00
2023-05-22T12:58:25.283Z,100.00
2023-05-22T13:00:57.814Z,100.00
2023-05-22T13:03:30.704Z,100.00
2023-05-22T13:06:03.402Z,100.00
2023-05-22T13:08:36.593Z,100.00
2023-05-22T13:11:10.687Z,100.00
2023-05-22T13:13:43.120Z,100.00
2023-05-22T13:16:16.257Z,100.00
2023-05-22T13:18:48.781Z,100.00
2023-05-22T13:21:21.204Z,100.00
2023-05-22T13:23:55.221Z,100.00
2023-05-22T13:26:28.362Z,100.00
2023-05-22T13:29:04.532Z,100.00
2023-05-22T13:31:37.570Z,100.00
2023-05-22T13:34:10.356Z,100.00
2023-05-22T13:36:43.139Z,100.00
2023-05-22T13:39:18.864Z,100.00
2023-05-22T13:41:52.621Z,100.00
2023-05-22T13:44:25.398Z,100.00
2023-05-22T13:46:57.965Z,100.00
2023-05-22T13:49:30.429Z,100.00
2023-05-22T13:52:03.116Z,100.00
2023-05-22T13:54:36.213Z,100.00
2023-05-22T13:57:08.717Z,98.36
2023-05-22T13:59:41.147Z,97.83
2023-05-22T14:02:13.632Z,93.40
2023-05-22T14:04:48.562Z,100.00
2023-05-22T14:07:21.191Z,97.70
2023-05-22T14:09:54.252Z,100.00
2023-05-22T14:12:26.818Z,100.00
2023-05-22T14:14:59.302Z,100.00
2023-05-22T14:17:31.647Z,95.52
2023-05-22T14:20:04.573Z,92.17
2023-05-22T14:22:47.918Z,89.61
2023-05-22T14:25:29.265Z,89.58
2023-05-22T14:28:02.007Z,87.53
2023-05-22T14:30:34.411Z,91.10
2023-05-22T14:33:07.014Z,91.17
2023-05-22T14:35:39.546Z,93.73
2023-05-22T14:38:12.041Z,97.90
2023-05-22T14:40:45.223Z,89.16
2023-05-22T14:43:17.515Z,86.83
2023-05-22T14:45:50.116Z,88.75
2023-05-22T14:48:25.413Z,85.31
2023-05-22T14:50:57.812Z,79.09
2023-05-22T14:53:30.135Z,82.79
2023-05-22T14:56:03.268Z,82.32
2023-05-22T14:58:35.551Z,78.86
2023-05-22T15:01:07.924Z,84.26
2023-05-22T15:03:40.238Z,83.10
2023-05-22T15:06:12.557Z,81.51
2023-05-22T15:08:44.887Z,75.87
2023-05-22T15:11:17.856Z,74.03
2023-05-22T15:13:50.840Z,72.89
2023-05-22T15:16:24.864Z,76.72
2023-05-22T15:18:57.250Z,81.23
2023-05-22T15:21:29.772Z,73.83
2023-05-22T15:24:02.483Z,74.21
2023-05-22T15:26:35.502Z,74.48
2023-05-22T15:29:07.909Z,73.74
2023-05-22T15:31:40.290Z,74.84
2023-05-22T15:34:12.622Z,73.59
2023-05-22T15:36:44.960Z,73.41
2023-05-22T15:39:17.304Z,74.64
2023-05-22T15:42:02.455Z,74.31
2023-05-22T15:44:37.953Z,76.81
2023-05-22T15:47:10.280Z,75.64
2023-05-22T15:49:42.619Z,76.43
2023-05-22T15:52:15.053Z,73.04
2023-05-22T15:54:47.366Z,80.37
2023-05-22T15:57:20.393Z,82.98
2023-05-22T15:59:52.748Z,83.89
2023-05-22T16:02:25.110Z,86.43
2023-05-22T16:04:57.464Z,88.35
2023-05-22T16:07:29.791Z,88.76
2023-05-22T16:10:02.155Z,87.91
2023-05-22T16:12:35.308Z,91.57
2023-05-22T16:15:08.844Z,93.61
2023-05-22T16:17:41.176Z,92.48
2023-05-22T16:20:13.550Z,91.78
2023-05-22T16:22:48.979Z,92.86
2023-05-22T16:25:21.819Z,92.10
2023-05-22T16:27:54.801Z,91.33
2023-05-22T16:30:27.154Z,91.86
2023-05-22T16:32:59.527Z,90.36
2023-05-22T16:35:31.886Z,89.52
2023-05-22T16:38:06.295Z,90.17
2023-05-22T16:40:38.631Z,91.02
2023-05-22T16:43:13.057Z,90.92
2023-05-22T16:45:50.152Z,88.12
2023-05-22T16:48:22.525Z,88.29
2023-05-22T16:50:54.882Z,88.07
2023-05-22T16:53:27.220Z,87.62
2023-05-22T16:55:59.673Z,86.59
2023-05-22T16:58:32.728Z,82.50
2023-05-22T17:01:05.951Z,82.35
2023-05-22T17:03:38.384Z,81.81
2023-05-22T17:06:11.432Z,82.96
2023-05-22T17:08:43.994Z,85.82
2023-05-22T17:11:16.363Z,86.60
2023-05-22T17:13:49.438Z,87.47
2023-05-22T17:16:21.797Z,88.91
2023-05-22T17:18:55.076Z,90.70
2023-05-22T17:21:28.152Z,91.40
2023-05-22T17:24:01.075Z,94.11
2023-05-22T17:26:33.745Z,96.73
2023-05-22T17:29:06.986Z,96.82
2023-05-22T17:31:39.782Z,96.47
2023-05-22T17:34:12.235Z,96.78
2023-05-22T17:36:45.235Z,96.97
2023-05-22T17:39:17.700Z,97.48
2023-05-22T17:41:50.586Z,97.43
2023-05-22T17:44:23.585Z,94.99
2023-05-22T17:46:55.967Z,96.19
2023-05-22T17:49:28.330Z,94.86
2023-05-22T17:52:01.030Z,94.44
2023-05-22T17:54:33.979Z,95.46
2023-05-22T17:57:06.361Z,97.94
2023-05-22T17:59:40.416Z,97.50
2023-05-22T18:02:13.111Z,96.82
2023-05-22T18:04:45.474Z,97.72
2023-05-22T18:07:19.246Z,99.68
2023-05-22T18:09:51.788Z,100.00
2023-05-22T18:12:31.703Z,100.00
2023-05-22T18:15:08.754Z,100.00
2023-05-22T18:17:41.498Z,100.00
2023-05-22T18:20:16.020Z,100.00
2023-05-22T18:22:48.356Z,100.00
2023-05-22T18:25:20.689Z,100.00
2023-05-22T18:27:54.404Z,100.00
2023-05-22T18:30:27.511Z,100.00
2023-05-22T18:33:00.038Z,100.00
2023-05-22T18:35:33.036Z,100.00
2023-05-22T18:38:05.735Z,100.00
2023-05-22T18:40:38.123Z,100.00
2023-05-22T18:43:10.552Z,100.00
2023-05-22T18:45:43.593Z,100.00
2023-05-22T18:48:15.996Z,100.00
2023-05-22T18:50:48.481Z,100.00
2023-05-22T18:53:22.132Z,100.00
2023-05-22T18:55:54.489Z,100.00
2023-05-22T18:58:26.862Z,100.00
2023-05-22T19:01:01.025Z,100.00
2023-05-22T19:03:33.486Z,100.00
2023-05-22T19:06:06.458Z,100.00
2023-05-22T19:08:39.689Z,100.00
2023-05-22T19:11:12.106Z,99.68
2023-05-22T19:13:44.737Z,96.89
2023-05-22T19:16:17.880Z,96.48
2023-05-22T19:18:50.513Z,97.21
2023-05-22T19:21:23.809Z,100.00
2023-05-22T19:23:56.164Z,100.00
2023-05-22T19:26:28.475Z,100.00
2023-05-22T19:29:00.897Z,100.00
2023-05-22T19:31:34.650Z,100.00
2023-05-22T19:34:07.074Z,100.00
2023-05-22T19:36:39.422Z,100.00
2023-05-22T19:39:11.817Z,100.00
2023-05-22T19:41:44.259Z,100.00
2023-05-22T19:44:16.625Z,100.00
2023-05-22T19:46:49.840Z,100.00
2023-05-22T19:49:22.360Z,100.00
2023-05-22T19:51:56.151Z,100.00
2023-05-22T19:54:28.777Z,97.55
2023-05-22T19:57:02.252Z,100.00
2023-05-22T19:59:36.507Z,100.00
2023-05-22T20:02:10.413Z,100.00
2023-05-22T20:04:48.783Z,100.00
2023-05-22T20:07:21.217Z,99.19
2023-05-22T20:09:53.563Z,99.59
2023-05-22T20:12:26.122Z,100.00
2023-05-22T20:14:59.094Z,100.00
2023-05-22T20:17:32.211Z,100.00
2023-05-22T20:20:08.954Z,100.00
2023-05-22T20:22:41.282Z,100.00
2023-05-22T20:25:13.637Z,100.00
2023-05-22T20:27:53.453Z,100.00
2023-05-22T20:30:25.797Z,100.00
2023-05-22T20:32:58.920Z,100.00
2023-05-22T20:35:31.591Z,100.00
2023-05-22T20:38:03.970Z,100.00
2023-05-22T20:40:41.605Z,100.00
2023-05-22T20:43:17.890Z,100.00
2023-05-22T20:45:50.455Z,100.00
2023-05-22T20:48:26.131Z,100.00
2023-05-22T20:50:58.496Z,100.00
2023-05-22T20:53:33.728Z,100.00
2023-05-22T20:56:08.782Z,100.00
2023-05-22T20:58:52.502Z,100.00
2023-05-22T21:01:33.410Z,100.00
2023-05-22T21:04:07.045Z,100.00
2023-05-22T21:06:39.545Z,100.00
2023-05-22T21:09:11.957Z,100.00
2023-05-22T21:11:44.307Z,100.00
2023-05-22T21:14:16.839Z,100.00
2023-05-22T21:16:49.236Z,100.00
2023-05-22T21:19:22.318Z,100.00
2023-05-22T21:21:54.694Z,100.00
2023-05-22T21:24:27.248Z,100.00
2023-05-22T21:26:59.859Z,100.00
2023-05-22T21:29:32.201Z,100.00
2023-05-22T21:32:05.305Z,100.00
2023-05-22T21:34:38.321Z,100.00
2023-05-22T21:37:10.770Z,100.00
2023-05-22T21:39:43.157Z,100.00
2023-05-22T21:42:16.189Z,100.00
2023-05-22T21:44:48.634Z,100.00
2023-05-22T21:47:20.990Z,100.00
2023-05-22T21:49:53.937Z,100.00
2023-05-22T21:52:27.956Z,100.00
2023-05-22T21:55:01.612Z,100.00
2023-05-22T21:57:34.363Z,100.00
2023-05-22T22:00:07.832Z,100.00
2023-05-22T22:02:40.331Z,100.00
2023-05-22T22:05:13.479Z,100.00
2023-05-22T22:07:45.855Z,100.00
2023-05-22T22:10:18.232Z,100.00
2023-05-22T22:12:50.567Z,100.00
2023-05-22T22:15:22.985Z,100.00
2023-05-22T22:17:59.376Z,100.00
2023-05-22T22:20:43.477Z,100.00
2023-05-22T22:23:17.069Z,100.00
2023-05-22T22:25:49.623Z,100.00
2023-05-22T22:28:22.018Z,100.00
2023-05-22T22:30:54.346Z,100.00
2023-05-22T22:33:26.700Z,100.00
2023-05-22T22:35:59.810Z,100.00
2023-05-22T22:38:34.319Z,100.00
2023-05-22T22:41:08.641Z,100.00
2023-05-22T22:43:41.074Z,100.00
2023-05-22T22:46:13.761Z,100.00
2023-05-22T22:48:46.057Z,100.00
2023-05-22T22:51:19.371Z,100.00
2023-05-22T22:53:51.834Z,100.00
2023-05-22T22:56:27.372Z,100.00
2023-05-22T22:58:59.741Z,100.00
2023-05-22T23:01:32.407Z,100.00
2023-05-22T23:04:04.904Z,100.00
2023-05-22T23:06:41.021Z,100.00
2023-05-22T23:09:14.600Z,100.00
2023-05-22T23:11:46.936Z,100.00
2023-05-22T23:14:19.706Z,100.00
2023-05-22T23:16:52.325Z,100.00
2023-05-22T23:19:24.729Z,100.00
2023-05-22T23:21:57.744Z,100.00
2023-05-22T23:24:30.083Z,100.00
2023-05-22T23:27:02.398Z,100.00
2023-05-22T23:29:34.702Z,100.00
2023-05-22T23:32:07.081Z,100.00
2023-05-22T23:34:39.614Z,100.00
2023-05-22T23:37:12.642Z,100.00
2023-05-22T23:39:44.953Z,100.00
2023-05-22T23:42:18.027Z,100.00
2023-05-22T23:44:50.366Z,100.00
2023-05-22T23:47:22.742Z,100.00
2023-05-22T23:49:55.999Z,100.00
2023-05-22T23:52:29.008Z,100.00
2023-05-22T23:55:01.474Z,100.00
2023-05-22T23:57:33.845Z,100.00
